Time;durP1;ratioP1;P1;durP2;ratioP2;P2;SDS_P1;SDS_P2;PMS_P1;PMS_P2;Temp;Humidity;BMP_temperature;BMP_pressure;BME280_temperature;BME280_humidity;BME280_pressure;Samples;Min_cycle;Max_cycle;Signal;HPM_P1;HPM_P2
2023/04/22 00:00:47;;;;;;;4.63;2.00;;;20.30;53.30;;;;;;5093035;28;20506;-75
2023/04/22 00:03:13;;;;;;;6.13;2.20;;;20.30;53.30;;;;;;5093496;28;20052;-75
2023/04/22 00:05:40;;;;;;;4.18;1.95;;;20.30;53.30;;;;;;5093731;28;20067;-75
2023/04/22 00:08:06;;;;;;;3.53;1.97;;;20.30;53.30;;;;;;5092902;28;20048;-75
2023/04/22 00:10:32;;;;;;;3.33;1.95;;;20.30;53.30;;;;;;5093945;28;20048;-76
2023/04/22 00:12:57;;;;;;;3.03;1.70;;;20.30;53.30;;;;;;5093793;28;20059;-75
2023/04/22 00:15:24;;;;;;;3.72;2.25;;;20.30;53.30;;;;;;5092993;28;20044;-75
2023/04/22 00:17:49;;;;;;;3.38;2.22;;;20.30;53.30;;;;;;5093505;28;20536;-76
2023/04/22 00:20:16;;;;;;;3.67;2.13;;;20.20;53.30;;;;;;5093303;28;20155;-75
2023/04/22 00:22:41;;;;;;;4.93;1.90;;;20.20;53.30;;;;;;5092838;28;20137;-75
2023/04/22 00:25:07;;;;;;;3.80;1.83;;;20.20;53.30;;;;;;5092285;28;20094;-75
2023/04/22 00:27:33;;;;;;;4.30;2.35;;;20.20;53.30;;;;;;5093815;28;20423;-75
2023/04/22 00:29:58;;;;;;;3.55;1.83;;;20.20;53.30;;;;;;5092853;28;20043;-75
2023/04/22 00:32:25;;;;;;;3.22;2.08;;;20.20;53.30;;;;;;5093595;28;20511;-75
2023/04/22 00:34:50;;;;;;;3.15;2.20;;;20.20;53.30;;;;;;5093290;28;20052;-75
2023/04/22 00:37:16;;;;;;;4.45;2.05;;;20.20;53.30;;;;;;5092705;28;20043;-75
2023/04/22 00:39:41;;;;;;;4.13;1.88;;;20.20;53.30;;;;;;5075457;28;20050;-75
2023/04/22 00:42:07;;;;;;;3.00;2.10;;;20.20;53.30;;;;;;5093205;28;20116;-75
2023/04/22 00:44:32;;;;;;;4.05;2.00;;;20.20;53.30;;;;;;5092730;28;20047;-75
2023/04/22 00:46:59;;;;;;;3.67;1.92;;;20.20;53.30;;;;;;5093017;28;20036;-76
2023/04/22 00:49:26;;;;;;;3.70;2.05;;;20.20;53.30;;;;;;5092565;28;20059;-75
2023/04/22 00:51:51;;;;;;;4.03;2.22;;;20.20;53.30;;;;;;5104433;28;20079;-76
2023/04/22 00:54:17;;;;;;;3.80;1.65;;;20.20;53.30;;;;;;5112789;28;20082;-76
2023/04/22 00:56:42;;;;;;;3.95;1.98;;;20.20;53.30;;;;;;5112705;28;20043;-76
2023/04/22 00:59:08;;;;;;;3.28;2.00;;;20.10;53.30;;;;;;5113347;28;20118;-76
2023/04/22 01:01:33;;;;;;;3.92;2.00;;;20.20;53.30;;;;;;5112175;28;20389;-76
2023/04/22 01:03:59;;;;;;;3.63;1.88;;;20.10;53.20;;;;;;5094031;28;20502;-76
2023/04/22 01:06:25;;;;;;;4.18;2.00;;;20.10;53.20;;;;;;5111661;28;20039;-76
2023/04/22 01:08:51;;;;;;;3.47;1.73;;;20.10;53.30;;;;;;5113066;28;20043;-75
2023/04/22 01:11:16;;;;;;;3.42;1.70;;;20.10;53.20;;;;;;5111864;28;20047;-75
2023/04/22 01:13:42;;;;;;;2.80;2.00;;;20.10;53.20;;;;;;5113068;28;20130;-76
2023/04/22 01:16:07;;;;;;;3.40;2.05;;;20.10;53.30;;;;;;5111513;28;20126;-75
2023/04/22 01:18:34;;;;;;;3.63;2.25;;;20.10;53.20;;;;;;5112461;28;20487;-76
2023/04/22 01:21:01;;;;;;;2.85;1.90;;;20.10;53.30;;;;;;5112545;28;20054;-75
2023/04/22 01:23:26;;;;;;;2.90;1.80;;;20.10;53.30;;;;;;5112946;28;20070;-76
2023/04/22 01:25:52;;;;;;;3.15;1.83;;;20.10;53.30;;;;;;5110067;28;20040;-75
2023/04/22 01:28:18;;;;;;;4.78;1.92;;;20.10;53.20;;;;;;5092064;28;20491;-75
2023/04/22 01:30:43;;;;;;;3.63;1.70;;;20.10;53.30;;;;;;5102203;28;20425;-76
2023/04/22 01:33:09;;;;;;;3.03;1.95;;;20.10;53.30;;;;;;5091742;28;20044;-75
2023/04/22 01:35:38;;;;;;;3.85;2.22;;;20.10;53.30;;;;;;5091350;28;20403;-75
2023/04/22 01:38:04;;;;;;;3.63;1.80;;;20.10;53.30;;;;;;5110476;28;20050;-76
2023/04/22 01:40:30;;;;;;;3.05;1.80;;;20.10;53.30;;;;;;5111789;28;20343;-75
2023/04/22 01:42:57;;;;;;;3.65;2.00;;;20.10;53.30;;;;;;5112320;28;20086;-75
2023/04/22 01:45:23;;;;;;;2.00;1.40;;;20.10;53.30;;;;;;5111826;28;20126;-75
2023/04/22 01:47:49;;;;;;;4.40;1.90;;;20.00;53.20;;;;;;5111787;28;20118;-76
2023/04/22 01:50:15;;;;;;;3.08;1.88;;;20.00;53.20;;;;;;5112019;28;20056;-76
2023/04/22 01:52:40;;;;;;;3.15;1.73;;;20.00;53.20;;;;;;5111791;28;20036;-75
2023/04/22 01:55:06;;;;;;;2.65;1.77;;;20.10;53.30;;;;;;5112173;28;20100;-73
2023/04/22 01:57:32;;;;;;;3.10;1.65;;;20.00;53.20;;;;;;5111256;28;20070;-75
2023/04/22 01:59:58;;;;;;;3.50;2.03;;;20.00;53.20;;;;;;5111692;28;20483;-74
2023/04/22 02:02:23;;;;;;;3.25;2.03;;;20.00;53.20;;;;;;5111694;28;20039;-75
2023/04/22 02:04:49;;;;;;;2.80;2.03;;;20.00;53.20;;;;;;5111844;28;20043;-75
2023/04/22 02:07:14;;;;;;;3.33;2.00;;;20.00;53.20;;;;;;5111198;28;20071;-75
2023/04/22 02:09:40;;;;;;;2.70;1.70;;;20.00;53.20;;;;;;5111008;28;20040;-75
2023/04/22 02:12:05;;;;;;;3.10;1.92;;;20.00;53.20;;;;;;5112102;28;20051;-76
2023/04/22 02:14:31;;;;;;;2.83;1.85;;;20.00;53.20;;;;;;5110232;28;20040;-76
2023/04/22 02:16:56;;;;;;;2.40;1.75;;;20.00;53.20;;;;;;5111785;28;20066;-76
2023/04/22 02:19:22;;;;;;;3.03;1.67;;;20.00;53.30;;;;;;5112552;28;20049;-76
2023/04/22 02:21:48;;;;;;;2.50;1.70;;;20.00;53.20;;;;;;5110164;28;20475;-76
2023/04/22 02:24:13;;;;;;;3.25;2.42;;;20.00;53.20;;;;;;5110470;28;20080;-76
2023/04/22 02:26:40;;;;;;;3.08;1.80;;;20.00;53.30;;;;;;5110917;28;20039;-76
2023/04/22 02:29:05;;;;;;;2.58;1.52;;;20.00;53.30;;;;;;5111359;28;20127;-77
2023/04/22 02:31:31;;;;;;;2.60;1.75;;;19.90;53.20;;;;;;5112332;28;20455;-76
2023/04/22 02:33:57;;;;;;;2.20;1.70;;;19.90;53.20;;;;;;5111852;28;20047;-76
2023/04/22 02:36:22;;;;;;;3.28;2.10;;;19.90;53.30;;;;;;5111174;28;20052;-77
2023/04/22 02:38:48;;;;;;;2.85;1.92;;;19.90;53.20;;;;;;5112024;28;20047;-76
2023/04/22 02:41:13;;;;;;;3.53;1.85;;;19.90;53.20;;;;;;5113004;28;20075;-76
2023/04/22 02:43:44;;;;;;;3.38;1.88;;;19.90;53.20;;;;;;5115521;28;20062;-76
2023/04/22 02:46:11;;;;;;;2.90;1.77;;;19.90;53.30;;;;;;5115454;28;20040;-76
2023/04/22 02:48:37;;;;;;;3.42;1.92;;;19.90;53.30;;;;;;5116018;28;20116;-75
2023/04/22 02:51:03;;;;;;;2.95;1.80;;;19.90;53.30;;;;;;5115048;28;20055;-76
2023/04/22 02:53:29;;;;;;;3.00;1.80;;;19.90;53.30;;;;;;5114495;28;20378;-76
2023/04/22 02:55:55;;;;;;;3.17;1.90;;;19.90;53.30;;;;;;5114600;27;20044;-76
2023/04/22 02:58:21;;;;;;;2.67;1.50;;;19.90;53.30;;;;;;5115491;28;20052;-75
2023/04/22 03:00:46;;;;;;;2.70;2.20;;;19.90;53.30;;;;;;5114769;28;20039;-76
2023/04/22 03:03:12;;;;;;;3.00;1.90;;;19.90;53.30;;;;;;5114145;28;20564;-76
2023/04/22 03:05:38;;;;;;;2.30;1.65;;;19.90;53.30;;;;;;5115884;28;20036;-76
2023/04/22 03:08:03;;;;;;;2.60;1.70;;;19.90;53.30;;;;;;5115068;28;20182;-76
2023/04/22 03:10:29;;;;;;;3.33;1.75;;;19.90;54.10;;;;;;5114862;28;20172;-76
2023/04/22 03:12:54;;;;;;;3.08;1.77;;;19.90;53.40;;;;;;5115353;28;20475;-76
2023/04/22 03:15:20;;;;;;;4.18;1.90;;;19.90;53.50;;;;;;5115634;28;20047;-76
2023/04/22 03:17:46;;;;;;;3.05;1.65;;;19.90;53.40;;;;;;5114322;28;20044;-76
2023/04/22 03:20:11;;;;;;;2.85;1.60;;;19.90;53.50;;;;;;5115346;28;20027;-76
2023/04/22 03:22:37;;;;;;;3.17;1.75;;;19.90;53.40;;;;;;5113824;28;20067;-75
2023/04/22 03:25:03;;;;;;;2.80;1.67;;;19.90;53.50;;;;;;5114417;28;20039;-75
2023/04/22 03:27:28;;;;;;;2.58;1.67;;;19.90;53.40;;;;;;5113614;28;20429;-75
2023/04/22 03:29:54;;;;;;;2.83;1.90;;;19.90;53.40;;;;;;5114658;28;20048;-75
2023/04/22 03:32:20;;;;;;;2.53;1.55;;;19.90;53.50;;;;;;5114029;28;20036;-75
2023/04/22 03:34:45;;;;;;;3.40;1.70;;;19.90;53.50;;;;;;5115147;28;20090;-75
2023/04/22 03:37:11;;;;;;;2.92;1.80;;;19.90;53.40;;;;;;5108726;28;20551;-75
2023/04/22 03:39:36;;;;;;;2.22;1.65;;;19.90;53.40;;;;;;5093757;28;20123;-75
2023/04/22 03:42:02;;;;;;;3.30;1.65;;;19.90;53.40;;;;;;5108751;28;20134;-74
2023/04/22 03:44:27;;;;;;;3.20;1.85;;;19.90;53.40;;;;;;5094684;28;20403;-75
2023/04/22 03:46:53;;;;;;;3.33;1.77;;;20.00;53.50;;;;;;5092400;28;20144;-74
2023/04/22 03:49:18;;;;;;;2.78;1.85;;;20.00;53.50;;;;;;5094095;28;20054;-74
2023/04/22 03:51:44;;;;;;;2.90;1.50;;;20.00;53.50;;;;;;5092744;28;20052;-74
2023/04/22 03:54:09;;;;;;;2.38;1.55;;;20.00;53.50;;;;;;5093146;28;20040;-75
2023/04/22 03:56:35;;;;;;;2.97;1.63;;;20.00;53.50;;;;;;5094369;28;20048;-75
2023/04/22 03:59:01;;;;;;;2.45;1.55;;;20.00;53.50;;;;;;5094122;28;20044;-74
2023/04/22 04:01:26;;;;;;;2.45;1.85;;;20.00;53.50;;;;;;5093006;28;20098;-74
2023/04/22 04:03:52;;;;;;;2.22;1.40;;;20.00;53.50;;;;;;5092328;28;20039;-74
2023/04/22 04:06:17;;;;;;;2.35;1.55;;;20.00;53.50;;;;;;5092213;28;20851;-75
2023/04/22 04:08:43;;;;;;;2.58;1.67;;;20.00;53.50;;;;;;5093901;28;20055;-74
2023/04/22 04:11:08;;;;;;;2.65;1.70;;;20.00;53.50;;;;;;5093529;28;20042;-74
2023/04/22 04:13:34;;;;;;;2.25;1.70;;;20.10;53.50;;;;;;5093039;28;20044;-74
2023/04/22 04:16:00;;;;;;;3.03;1.70;;;20.10;53.50;;;;;;5092198;28;20051;-74
2023/04/22 04:18:26;;;;;;;2.30;1.67;;;20.10;53.50;;;;;;5093876;28;20187;-75
2023/04/22 04:20:51;;;;;;;2.10;1.75;;;20.10;53.50;;;;;;5093267;28;20060;-75
2023/04/22 04:23:17;;;;;;;2.95;1.60;;;20.10;53.50;;;;;;5093414;28;20048;-75
2023/04/22 04:25:42;;;;;;;2.50;1.65;;;20.10;53.50;;;;;;5093702;28;20067;-75
2023/04/22 04:28:10;;;;;;;2.15;1.40;;;20.10;53.50;;;;;;5092593;28;20531;-75
2023/04/22 04:30:36;;;;;;;2.63;1.67;;;20.10;53.50;;;;;;5093709;28;20060;-75
2023/04/22 04:33:05;;;;;;;2.83;1.70;;;20.10;53.60;;;;;;5093525;28;20044;-75
2023/04/22 04:35:35;;;;;;;2.03;1.35;;;20.10;53.50;;;;;;5092921;28;20051;-75
2023/04/22 04:38:01;;;;;;;2.15;1.55;;;20.10;53.50;;;;;;5093376;28;20040;-75
2023/04/22 04:40:28;;;;;;;2.15;1.60;;;20.10;53.50;;;;;;5092106;28;20044;-75
2023/04/22 04:42:56;;;;;;;2.10;1.50;;;20.10;53.50;;;;;;5099606;28;20042;-75
2023/04/22 04:45:22;;;;;;;1.88;1.38;;;20.20;53.60;;;;;;5113561;28;20053;-75
2023/04/22 04:47:54;;;;;;;2.40;1.48;;;20.20;53.60;;;;;;5106886;28;20035;-75
2023/04/22 04:50:20;;;;;;;1.90;1.38;;;20.20;53.60;;;;;;5090929;28;20044;-75
2023/04/22 04:52:48;;;;;;;2.10;1.50;;;20.20;53.60;;;;;;5093221;28;20036;-75
2023/04/22 04:55:14;;;;;;;;;;;20.20;53.60;;;;;;5106274;28;20082;-75
2023/04/22 04:57:40;;;;;;;3.05;1.67;;;20.20;53.60;;;;;;5107123;28;19974;-75
2023/04/22 05:00:07;;;;;;;2.92;1.65;;;20.10;53.50;;;;;;5092723;28;20079;-75
2023/04/22 05:02:32;;;;;;;2.38;1.55;;;20.20;53.60;;;;;;5094721;28;20036;-74
2023/04/22 05:04:58;;;;;;;2.25;1.73;;;20.20;53.60;;;;;;5112446;28;20038;-74
2023/04/22 05:07:23;;;;;;;2.65;1.67;;;20.20;53.60;;;;;;5112975;28;20047;-74
2023/04/22 05:09:49;;;;;;;2.45;1.77;;;20.20;53.60;;;;;;5112362;28;20154;-74
2023/04/22 05:12:14;;;;;;;2.75;1.75;;;20.10;53.50;;;;;;5112857;28;20083;-74
2023/04/22 05:14:40;;;;;;;2.45;1.67;;;20.20;53.60;;;;;;5113107;28;20104;-75
2023/04/22 05:17:06;;;;;;;4.43;1.60;;;20.20;53.60;;;;;;5112118;28;20078;-76
2023/04/22 05:19:31;;;;;;;1.55;1.35;;;20.20;53.60;;;;;;5111522;28;20042;-75
2023/04/22 05:21:57;;;;;;;2.42;1.48;;;20.10;53.50;;;;;;5112654;28;20070;-75
2023/04/22 05:24:23;;;;;;;2.67;1.80;;;20.20;53.60;;;;;;5111529;28;20145;-76
2023/04/22 05:26:48;;;;;;;2.17;1.55;;;20.10;53.60;;;;;;5112995;28;20047;-77
2023/04/22 05:29:14;;;;;;;4.60;1.92;;;20.10;53.50;;;;;;5112035;28;20786;-74
2023/04/22 05:31:39;;;;;;;4.50;2.20;;;20.10;53.50;;;;;;5112255;28;20483;-76
2023/04/22 05:34:05;;;;;;;8.10;2.10;;;20.10;53.50;;;;;;5112240;28;20043;-77
2023/04/22 05:36:30;;;;;;;6.97;1.75;;;20.10;53.60;;;;;;5112962;28;20525;-75
2023/04/22 05:38:56;;;;;;;4.43;1.73;;;20.10;53.70;;;;;;5076366;28;20048;-75
2023/04/22 05:41:22;;;;;;;5.60;2.00;;;20.10;53.80;;;;;;5072056;28;20037;-75
2023/04/22 05:43:47;;;;;;;7.50;1.90;;;20.10;53.80;;;;;;5084130;28;20047;-75
2023/04/22 05:46:13;;;;;;;3.92;1.80;;;20.10;53.90;;;;;;5091484;28;20501;-74
2023/04/22 05:48:38;;;;;;;2.63;1.70;;;20.10;53.90;;;;;;5092215;28;20556;-75
2023/04/22 05:51:04;;;;;;;3.75;2.20;;;20.10;53.90;;;;;;5090937;28;20488;-75
2023/04/22 05:53:29;;;;;;;3.83;1.80;;;20.10;54.00;;;;;;5091783;28;20468;-75
2023/04/22 05:55:55;;;;;;;5.35;2.10;;;20.10;54.00;;;;;;5091896;28;20051;-75
2023/04/22 05:58:20;;;;;;;2.92;1.88;;;20.10;54.00;;;;;;5081416;28;20491;-75
2023/04/22 06:00:46;;;;;;;3.30;1.70;;;20.10;54.10;;;;;;5111630;28;20040;-70
2023/04/22 06:03:12;;;;;;;3.17;1.83;;;20.10;54.10;;;;;;5111946;28;20047;-72
2023/04/22 06:05:37;;;;;;;3.88;1.65;;;20.10;54.20;;;;;;5112481;28;20047;-69
2023/04/22 06:08:03;;;;;;;4.72;2.05;;;20.10;54.20;;;;;;5101442;28;20105;-71
2023/04/22 06:10:28;;;;;;;4.45;1.85;;;20.10;54.20;;;;;;5091931;28;20045;-77
2023/04/22 06:12:54;;;;;;;2.60;1.60;;;20.10;54.30;;;;;;5091145;28;20032;-77
2023/04/22 06:15:20;;;;;;;4.72;2.08;;;20.10;54.40;;;;;;5093478;28;20067;-76
2023/04/22 06:17:47;;;;;;;2.15;1.70;;;20.10;54.50;;;;;;5096160;28;20051;-72
2023/04/22 06:20:12;;;;;;;3.90;2.20;;;20.20;54.60;;;;;;5094806;28;20114;-75
2023/04/22 06:22:38;;;;;;;4.90;1.70;;;20.20;54.60;;;;;;5095867;28;20132;-74
2023/04/22 06:25:04;;;;;;;4.05;1.80;;;20.20;54.70;;;;;;5094031;28;20051;-76
2023/04/22 06:27:29;;;;;;;5.30;2.13;;;20.20;54.70;;;;;;5094972;28;20048;-75
2023/04/22 06:29:55;;;;;;;6.88;2.08;;;20.20;54.90;;;;;;5095819;28;20040;-75
2023/04/22 06:32:21;;;;;;;3.90;2.03;;;20.20;54.90;;;;;;5095602;28;20048;-73
2023/04/22 06:34:46;;;;;;;3.42;1.73;;;20.20;55.00;;;;;;5111348;28;20047;-74
2023/04/22 06:37:12;;;;;;;3.60;1.92;;;20.30;55.00;;;;;;5115856;28;20048;-71
2023/04/22 06:39:37;;;;;;;4.82;2.03;;;20.30;55.00;;;;;;5115656;28;20047;-76
2023/04/22 06:42:03;;;;;;;4.82;1.80;;;20.30;55.10;;;;;;5114844;28;20105;-73
2023/04/22 06:44:28;;;;;;;4.82;1.98;;;20.30;55.10;;;;;;5115845;28;20043;-74
2023/04/22 06:46:54;;;;;;;3.70;1.80;;;20.30;55.20;;;;;;5115946;28;20376;-73
2023/04/22 06:49:20;;;;;;;5.45;1.52;;;20.30;55.20;;;;;;5115124;27;20116;-74
2023/04/22 06:51:45;;;;;;;3.13;1.95;;;20.40;55.20;;;;;;5115898;28;20453;-74
2023/04/22 06:54:11;;;;;;;3.22;1.55;;;20.30;55.30;;;;;;5115297;28;20085;-75
2023/04/22 06:56:36;;;;;;;3.08;1.60;;;20.30;55.20;;;;;;5114657;28;20055;-72
2023/04/22 06:59:02;;;;;;;4.03;1.80;;;20.40;55.30;;;;;;5115215;28;20047;-74
2023/04/22 07:01:27;;;;;;;3.00;1.67;;;20.40;55.40;;;;;;5115708;28;20044;-75
2023/04/22 07:03:53;;;;;;;3.05;1.52;;;20.40;55.40;;;;;;5114860;28;20040;-73
2023/04/22 07:06:19;;;;;;;2.80;1.63;;;20.40;55.40;;;;;;5113790;28;20044;-75
2023/04/22 07:08:44;;;;;;;4.22;1.90;;;20.40;55.50;;;;;;5115441;28;20032;-73
2023/04/22 07:11:10;;;;;;;3.58;1.95;;;20.40;55.40;;;;;;5114108;28;20042;-72
2023/04/22 07:13:35;;;;;;;4.03;1.48;;;20.40;55.50;;;;;;5115033;28;20063;-75
2023/04/22 07:16:01;;;;;;;2.95;1.80;;;20.50;55.60;;;;;;5115130;28;20043;-76
2023/04/22 07:18:27;;;;;;;4.45;2.03;;;20.50;55.60;;;;;;5114419;28;20090;-78
2023/04/22 07:20:53;;;;;;;3.35;1.80;;;20.50;55.50;;;;;;5115584;28;20135;-78
2023/04/22 07:23:18;;;;;;;4.40;1.80;;;20.50;55.40;;;;;;5113623;28;20130;-80
2023/04/22 07:25:45;;;;;;;4.95;1.95;;;20.50;55.30;;;;;;5115009;28;20147;-78
2023/04/22 07:28:10;;;;;;;11.02;2.10;;;20.50;55.40;;;;;;5113580;28;20138;-77
2023/04/22 07:30:36;;;;;;;6.18;2.10;;;20.50;55.40;;;;;;5112679;28;20093;-79
2023/04/22 07:33:02;;;;;;;8.00;2.03;;;20.50;55.40;;;;;;5115053;28;20122;-78
2023/04/22 07:35:28;;;;;;;8.13;2.28;;;20.50;55.40;;;;;;5095117;28;20048;-74
2023/04/22 07:37:54;;;;;;;10.23;2.60;;;20.60;55.50;;;;;;5095701;28;20472;-68
2023/04/22 07:40:20;;;;;;;9.23;2.10;;;20.50;55.40;;;;;;5094666;28;20047;-72
2023/04/22 07:42:45;;;;;;;10.52;2.20;;;20.50;55.40;;;;;;5094786;28;20039;-71
2023/04/22 07:45:11;;;;;;;9.48;2.00;;;20.60;55.60;;;;;;5109392;28;20548;-75
2023/04/22 07:47:36;;;;;;;7.07;2.33;;;20.60;55.50;;;;;;5114992;28;20118;-74
2023/04/22 07:50:02;;;;;;;9.90;2.20;;;20.60;55.60;;;;;;5114311;28;20119;-76
2023/04/22 07:52:28;;;;;;;8.77;2.78;;;20.60;55.60;;;;;;5113934;28;20043;-77
2023/04/22 07:54:55;;;;;;;5.85;2.42;;;20.60;55.60;;;;;;5112843;28;20043;-78
2023/04/22 07:57:23;;;;;;;5.80;2.42;;;20.50;55.70;;;;;;5114742;28;20043;-77
2023/04/22 07:59:49;;;;;;;5.40;2.50;;;20.60;55.70;;;;;;5113567;28;20043;-76
2023/04/22 08:02:14;;;;;;;5.15;2.15;;;20.60;55.80;;;;;;5114274;28;20088;-79
2023/04/22 08:04:40;;;;;;;4.75;2.30;;;20.60;55.80;;;;;;5102517;28;20124;-76
2023/04/22 08:07:05;;;;;;;9.23;2.88;;;20.60;55.80;;;;;;5093140;28;20059;-78
2023/04/22 08:09:31;;;;;;;7.50;2.10;;;20.60;55.80;;;;;;5103951;28;20359;-77
2023/04/22 08:11:57;;;;;;;5.88;2.47;;;20.60;55.70;;;;;;5113984;28;20439;-78
2023/04/22 08:14:22;;;;;;;5.78;2.28;;;20.60;55.70;;;;;;5113294;28;20040;-79
2023/04/22 08:16:50;;;;;;;6.88;2.50;;;20.60;55.70;;;;;;5114565;28;20088;-79
2023/04/22 08:19:16;;;;;;;8.65;3.03;;;20.70;55.80;;;;;;5094791;28;20097;-74
2023/04/22 08:21:41;;;;;;;9.07;3.05;;;20.70;55.70;;;;;;5092776;28;20130;-76
2023/04/22 08:24:07;;;;;;;10.55;3.20;;;20.70;55.70;;;;;;5093259;28;20534;-70
2023/04/22 08:26:32;;;;;;;6.70;2.97;;;20.70;55.70;;;;;;5093051;28;20044;-70
2023/04/22 08:28:59;;;;;;;8.63;2.90;;;20.70;55.80;;;;;;5093555;28;20047;-72
2023/04/22 08:31:25;;;;;;;7.57;3.20;;;20.70;55.80;;;;;;5092716;28;20035;-71
2023/04/22 08:33:50;;;;;;;8.30;2.72;;;20.80;55.90;;;;;;5091856;28;20437;-70
2023/04/22 08:36:16;;;;;;;6.85;3.20;;;20.80;56.00;;;;;;5093138;28;20044;-70
2023/04/22 08:38:42;;;;;;;6.70;2.65;;;20.80;56.70;;;;;;5093437;28;20127;-75
2023/04/22 08:41:07;;;;;;;7.47;3.03;;;20.80;56.00;;;;;;5092361;28;20036;-74
2023/04/22 08:43:33;;;;;;;8.82;2.70;;;20.80;55.90;;;;;;5093500;28;20474;-73
2023/04/22 08:45:59;;;;;;;6.25;3.00;;;20.80;55.80;;;;;;5072730;28;20381;-74
2023/04/22 08:48:25;;;;;;;5.65;2.50;;;20.80;55.80;;;;;;5071140;28;20044;-75
2023/04/22 08:50:51;;;;;;;5.13;2.97;;;20.80;55.80;;;;;;5091709;28;20040;-75
2023/04/22 08:53:16;;;;;;;9.20;2.70;;;20.90;55.80;;;;;;5091564;28;20043;-72
2023/04/22 08:55:43;;;;;;;4.70;2.58;;;20.90;55.60;;;;;;5092458;28;20054;-72
2023/04/22 08:58:09;;;;;;;5.47;2.72;;;20.90;55.50;;;;;;5093087;28;20032;-74
2023/04/22 09:00:35;;;;;;;6.97;2.78;;;20.90;55.60;;;;;;5093071;28;20105;-72
2023/04/22 09:03:01;;;;;;;8.32;2.53;;;20.90;55.60;;;;;;5092166;28;20122;-71
2023/04/22 09:05:28;;;;;;;4.60;2.70;;;20.90;55.70;;;;;;5089500;28;20059;-71
2023/04/22 09:07:54;;;;;;;4.40;2.63;;;20.90;55.70;;;;;;5112961;28;20040;-71
2023/04/22 09:10:19;;;;;;;4.38;2.28;;;20.90;55.70;;;;;;5111451;28;20455;-76
2023/04/22 09:12:45;;;;;;;4.13;2.00;;;21.00;55.70;;;;;;5110574;28;20089;-72
2023/04/22 09:15:11;;;;;;;4.10;2.45;;;21.00;55.60;;;;;;5092134;28;20055;-72
2023/04/22 09:17:37;;;;;;;6.10;2.13;;;21.00;55.60;;;;;;5092158;28;20044;-76
2023/04/22 09:20:04;;;;;;;7.70;2.67;;;21.00;55.60;;;;;;5101092;28;20054;-76
2023/04/22 09:22:44;;;;;;;6.82;2.53;;;21.00;55.70;;;;;;5112926;28;20044;-76
2023/04/22 09:25:21;;;;;;;6.72;2.58;;;21.10;55.80;;;;;;5112299;28;20048;-75
2023/04/22 09:27:50;;;;;;;4.32;2.03;;;21.10;55.90;;;;;;5112135;28;20044;-75
2023/04/22 09:30:18;;;;;;;5.50;2.22;;;21.10;55.90;;;;;;5091699;28;20075;-75
2023/04/22 09:32:54;;;;;;;4.80;2.30;;;21.10;56.00;;;;;;5092547;28;20097;-72
2023/04/22 09:35:30;;;;;;;4.97;2.30;;;21.10;56.10;;;;;;5092659;28;20083;-74
2023/04/22 09:37:56;;;;;;;5.10;2.40;;;21.10;56.10;;;;;;5091456;28;20097;-75
2023/04/22 09:40:22;;;;;;;4.85;1.98;;;21.10;56.10;;;;;;5092492;28;20040;-74
2023/04/22 09:42:52;;;;;;;5.22;2.03;;;21.20;56.20;;;;;;5107577;28;20043;-73
2023/04/22 09:45:40;;;;;;;4.97;2.30;;;21.20;56.20;;;;;;5109215;28;20440;-73
2023/04/22 09:48:06;;;;;;;4.60;2.50;;;21.20;56.20;;;;;;5112591;28;20118;-73
2023/04/22 09:50:32;;;;;;;3.35;1.98;;;21.20;56.20;;;;;;5098768;28;20058;-73
2023/04/22 09:53:06;;;;;;;5.00;2.20;;;21.20;56.20;;;;;;5090043;28;20040;-72
2023/04/22 09:55:35;;;;;;;5.25;2.20;;;21.20;56.20;;;;;;5092185;28;20474;-72
2023/04/22 09:58:11;;;;;;;8.38;2.53;;;21.20;56.30;;;;;;5089909;28;20055;-74
2023/04/22 10:00:41;;;;;;;3.17;1.80;;;21.20;56.20;;;;;;5092286;28;20126;-74
2023/04/22 10:03:07;;;;;;;7.30;2.20;;;21.20;56.30;;;;;;5092179;28;20040;-72
2023/04/22 10:05:36;;;;;;;3.88;2.13;;;21.20;56.20;;;;;;5102009;28;20406;-72
2023/04/22 10:08:03;;;;;;;4.38;2.00;;;21.30;56.30;;;;;;5112178;28;20039;-73
2023/04/22 10:10:29;;;;;;;4.17;1.80;;;21.20;56.30;;;;;;5110667;28;20089;-71
2023/04/22 10:12:55;;;;;;;5.57;2.22;;;21.30;56.40;;;;;;5111584;28;20301;-75
2023/04/22 10:15:20;;;;;;;2.90;1.90;;;21.30;56.30;;;;;;5080860;28;20128;-74
2023/04/22 10:17:47;;;;;;;4.05;1.83;;;21.20;56.30;;;;;;5072168;28;20043;-74
2023/04/22 10:20:15;;;;;;;3.50;1.80;;;21.30;56.30;;;;;;5060848;28;20119;-74
2023/04/22 10:22:44;;;;;;;4.20;2.03;;;21.20;56.30;;;;;;5090868;28;20043;-73
2023/04/22 10:25:25;;;;;;;4.60;2.17;;;21.30;56.40;;;;;;5091560;28;20574;-74
2023/04/22 10:28:04;;;;;;;3.45;1.90;;;21.30;56.40;;;;;;5104423;28;20086;-74
2023/04/22 10:30:31;;;;;;;3.58;1.70;;;21.30;56.40;;;;;;5091407;28;20032;-74
2023/04/22 10:33:33;;;;;;;2.38;1.73;;;21.30;56.30;;;;;;5089672;28;20503;-74
2023/04/22 10:36:14;;;;;;;6.30;1.88;;;21.30;56.20;;;;;;5091123;28;20376;-74
2023/04/22 10:39:00;;;;;;;2.88;1.73;;;21.30;56.20;;;;;;5090856;28;20146;-74
2023/04/22 10:41:29;;;;;;;5.07;2.03;;;21.40;56.20;;;;;;5076321;28;20446;-74
2023/04/22 10:43:57;;;;;;;4.40;2.10;;;21.30;56.20;;;;;;5102873;28;20047;-74
2023/04/22 10:46:33;;;;;;;2.70;1.80;;;21.40;56.20;;;;;;5112254;28;20092;-74
2023/04/22 10:49:22;;;;;;;5.35;2.28;;;21.40;56.20;;;;;;5111107;28;20048;-72
2023/04/22 10:51:57;;;;;;;4.88;2.10;;;21.40;56.30;;;;;;5112439;28;20137;-74
2023/04/22 10:54:28;;;;;;;3.17;1.88;;;21.40;56.30;;;;;;5111353;28;20074;-75
2023/04/22 10:57:00;;;;;;;3.45;2.13;;;21.40;56.20;;;;;;5111154;28;20376;-71
2023/04/22 10:59:26;;;;;;;3.92;1.85;;;21.40;56.00;;;;;;5096347;28;20128;-68
2023/04/22 11:01:52;;;;;;;5.40;2.38;;;21.40;56.00;;;;;;5089993;28;20115;-68
2023/04/22 11:04:22;;;;;;;6.65;2.17;;;21.40;55.90;;;;;;5095256;28;20043;-69
2023/04/22 11:07:25;;;;;;;3.53;2.10;;;21.40;55.90;;;;;;5094239;28;20040;-68
2023/04/22 11:10:06;;;;;;;5.07;2.30;;;21.40;55.90;;;;;;5031912;28;20176;-69
2023/04/22 11:12:34;;;;;;;4.10;1.98;;;21.40;56.00;;;;;;5089610;28;20511;-69
2023/04/22 11:15:18;;;;;;;5.82;2.28;;;21.40;56.00;;;;;;5094800;28;20089;-68
2023/04/22 11:17:45;;;;;;;4.28;2.15;;;21.40;56.00;;;;;;5094963;28;20380;-69
2023/04/22 11:20:17;;;;;;;4.85;2.30;;;21.40;56.00;;;;;;5092910;28;20090;-69
2023/04/22 11:22:50;;;;;;;6.38;2.00;;;21.50;56.00;;;;;;5093836;28;20047;-69
2023/04/22 11:25:15;;;;;;;5.53;1.90;;;21.50;56.10;;;;;;5094440;28;20119;-70
2023/04/22 11:27:42;;;;;;;6.13;2.38;;;21.50;56.00;;;;;;5095131;28;20164;-68
2023/04/22 11:30:08;;;;;;;4.95;1.95;;;21.50;56.00;;;;;;5113818;28;20184;-76
2023/04/22 11:32:34;;;;;;;4.80;2.28;;;21.50;56.00;;;;;;5114575;28;20031;-69
2023/04/22 11:35:07;;;;;;;5.47;2.70;;;21.50;56.00;;;;;;5113333;28;20035;-69
2023/04/22 11:37:42;;;;;;;5.03;2.50;;;21.50;55.90;;;;;;5114587;28;20042;-69
2023/04/22 11:40:09;;;;;;;5.45;2.22;;;21.50;55.90;;;;;;5114937;28;20104;-68
2023/04/22 11:42:38;;;;;;;4.65;2.28;;;21.50;56.50;;;;;;5114594;28;20047;-68
2023/04/22 11:45:04;;;;;;;5.78;2.25;;;21.50;55.70;;;;;;5112252;28;20039;-68
2023/04/22 11:47:30;;;;;;;4.82;2.30;;;21.50;55.70;;;;;;5114971;27;20043;-68
2023/04/22 11:50:03;;;;;;;4.63;2.22;;;21.50;55.60;;;;;;5114171;28;20384;-68
2023/04/22 11:52:49;;;;;;;5.45;2.38;;;21.50;55.60;;;;;;5114368;28;20133;-68
2023/04/22 11:55:35;;;;;;;4.82;2.70;;;21.50;55.40;;;;;;5113972;28;20076;-68
2023/04/22 11:58:11;;;;;;;5.32;2.35;;;21.50;55.50;;;;;;5112821;28;20240;-68
2023/04/22 12:00:43;;;;;;;6.10;3.00;;;21.40;55.40;;;;;;5114478;28;20499;-69
2023/04/22 12:03:16;;;;;;;6.45;2.72;;;21.50;55.40;;;;;;5114248;28;20043;-69
2023/04/22 12:05:46;;;;;;;4.63;2.40;;;21.50;55.30;;;;;;5113931;28;20051;-68
2023/04/22 12:08:14;;;;;;;4.20;2.38;;;21.50;55.30;;;;;;5113872;28;20432;-68
2023/04/22 12:11:06;;;;;;;4.57;2.17;;;21.50;55.30;;;;;;5114829;28;20134;-69
2023/04/22 12:13:37;;;;;;;5.07;1.80;;;21.50;55.30;;;;;;5109354;28;20112;-69
2023/04/22 12:16:13;;;;;;;5.85;2.78;;;21.50;55.30;;;;;;5114073;28;20130;-68
2023/04/22 12:18:40;;;;;;;6.80;2.70;;;21.50;55.20;;;;;;5112082;28;20040;-68
2023/04/22 12:21:05;;;;;;;5.78;2.50;;;21.50;55.20;;;;;;5114193;28;20150;-68
2023/04/22 12:23:50;;;;;;;4.75;2.20;;;21.50;55.10;;;;;;5113758;28;20054;-68
2023/04/22 12:26:16;;;;;;;4.05;2.22;;;21.50;55.10;;;;;;5113303;28;20066;-69
2023/04/22 12:28:42;;;;;;;4.22;2.10;;;21.50;55.10;;;;;;5113827;28;20043;-67
2023/04/22 12:31:07;;;;;;;4.43;2.45;;;21.60;55.10;;;;;;5113803;28;20036;-68
2023/04/22 12:33:33;;;;;;;6.80;2.58;;;21.60;55.00;;;;;;5113198;28;20043;-68
2023/04/22 12:35:59;;;;;;;5.47;2.60;;;21.50;55.00;;;;;;5113809;28;20087;-68
2023/04/22 12:38:25;;;;;;;4.47;2.30;;;21.60;55.00;;;;;;5113709;28;20039;-68
2023/04/22 12:40:51;;;;;;;3.35;2.22;;;21.60;55.00;;;;;;5113052;28;20403;-68
2023/04/22 12:43:17;;;;;;;6.13;2.22;;;21.60;54.90;;;;;;5113195;28;20051;-68
2023/04/22 12:45:42;;;;;;;4.72;2.03;;;21.60;54.80;;;;;;5114126;28;20040;-69
2023/04/22 12:48:08;;;;;;;4.03;2.30;;;21.60;54.80;;;;;;5112749;28;20046;-69